Terminal Aerodrome Forecast
Issued by NWS

Home | Current Version | Previous Version | Text Only | Print | Product List | Glossary On
Versions: 1 2 3 4 5 6 7 8 9 10 11 12
000
FTUS44 KOUN 250520
TAFGAG
TAF
KGAG 250520Z 2506/2606 15010KT P6SM OVC100
     FM251200 17012KT 6SM -SHRA OVC040 PROB30 2515/2518 4SM -TSRA
      BKN025CB
     FM251800 18013KT 5SM -SHRA OVC025
      TEMPO 2518/2522 2SM TSRA OVC015CB
     FM252200 16013KT 5SM -TSRA OVC025CB
     FM260200 34012KT 3SM RA BR OVC012=

USA.gov is the U.S. government's official web portal to all federal, state and local government web resources and services.